10°C Temp
6°C Dewpoint
76% Humidity
Temperature
14 KM/H
9 MPH
8 KTS
280°
Due West

Wind Speed
Mostly Cloudy
Conditions
Pressure 1017.92 (hPa) - 30.06 (in)
Visibility 6.2 (mi) - 10.0 (km)

Current Conditions
LIRP
Location Pisa 50(km)
Metar :LIRP 302045Z 28008KT 9999 BKN030 10/06 Q1018 NOSIG
Mon 30th January 21:45 pm

Airport
  Metar Aviation API Data Provided by https://www.checkwx.com/ PHP scripts by weather34.com ©2023